sensor_id;sensor_type;location;lat;lon;timestamp;P1;durP1;ratioP1;P2;durP2;ratioP2
80195;SDS011;69516;42.050;21.516;2024-01-10T00:02:02;16.42;;;7.05;;
80195;SDS011;69516;42.050;21.516;2024-01-10T00:04:30;14.40;;;8.10;;
80195;SDS011;69516;42.050;21.516;2024-01-10T00:06:56;12.95;;;6.18;;
80195;SDS011;69516;42.050;21.516;2024-01-10T00:09:22;13.82;;;6.15;;
80195;SDS011;69516;42.050;21.516;2024-01-10T00:11:48;12.68;;;7.40;;
80195;SDS011;69516;42.050;21.516;2024-01-10T00:14:14;19.67;;;9.65;;
80195;SDS011;69516;42.050;21.516;2024-01-10T00:16:41;11.95;;;6.20;;
80195;SDS011;69516;42.050;21.516;2024-01-10T00:19:07;18.38;;;10.70;;
80195;SDS011;69516;42.050;21.516;2024-01-10T00:21:34;13.60;;;8.55;;
80195;SDS011;69516;42.050;21.516;2024-01-10T00:24:01;12.93;;;6.93;;
80195;SDS011;69516;42.050;21.516;2024-01-10T00:26:28;13.60;;;6.75;;
80195;SDS011;69516;42.050;21.516;2024-01-10T00:28:54;13.23;;;7.00;;
80195;SDS011;69516;42.050;21.516;2024-01-10T00:31:20;13.60;;;6.60;;
80195;SDS011;69516;42.050;21.516;2024-01-10T00:33:46;11.70;;;6.50;;
80195;SDS011;69516;42.050;21.516;2024-01-10T00:36:13;12.45;;;6.47;;
80195;SDS011;69516;42.050;21.516;2024-01-10T00:38:39;11.32;;;6.25;;
80195;SDS011;69516;42.050;21.516;2024-01-10T00:41:05;12.57;;;6.43;;
80195;SDS011;69516;42.050;21.516;2024-01-10T00:43:32;12.20;;;5.97;;
80195;SDS011;69516;42.050;21.516;2024-01-10T00:45:58;12.65;;;6.53;;
80195;SDS011;69516;42.050;21.516;2024-01-10T00:48:24;11.60;;;5.93;;
80195;SDS011;69516;42.050;21.516;2024-01-10T00:50:50;13.10;;;6.10;;
80195;SDS011;69516;42.050;21.516;2024-01-10T00:53:16;14.63;;;6.55;;
80195;SDS011;69516;42.050;21.516;2024-01-10T00:55:43;12.13;;;6.13;;
80195;SDS011;69516;42.050;21.516;2024-01-10T00:58:09;13.40;;;6.82;;
80195;SDS011;69516;42.050;21.516;2024-01-10T01:00:35;12.48;;;6.32;;
80195;SDS011;69516;42.050;21.516;2024-01-10T01:03:01;12.43;;;6.60;;
80195;SDS011;69516;42.050;21.516;2024-01-10T01:05:27;12.40;;;6.15;;
80195;SDS011;69516;42.050;21.516;2024-01-10T01:07:53;11.50;;;6.38;;
80195;SDS011;69516;42.050;21.516;2024-01-10T01:10:19;12.75;;;6.20;;
80195;SDS011;69516;42.050;21.516;2024-01-10T01:12:46;10.60;;;5.78;;
80195;SDS011;69516;42.050;21.516;2024-01-10T01:15:12;12.48;;;6.55;;
80195;SDS011;69516;42.050;21.516;2024-01-10T01:17:38;13.52;;;6.70;;
80195;SDS011;69516;42.050;21.516;2024-01-10T01:20:05;11.35;;;6.35;;
80195;SDS011;69516;42.050;21.516;2024-01-10T01:22:31;11.32;;;6.07;;
80195;SDS011;69516;42.050;21.516;2024-01-10T01:24:57;12.43;;;5.40;;
80195;SDS011;69516;42.050;21.516;2024-01-10T01:27:23;11.57;;;5.65;;
80195;SDS011;69516;42.050;21.516;2024-01-10T01:29:49;11.70;;;6.05;;
80195;SDS011;69516;42.050;21.516;2024-01-10T01:32:16;11.85;;;6.47;;
80195;SDS011;69516;42.050;21.516;2024-01-10T01:34:42;11.35;;;5.75;;
80195;SDS011;69516;42.050;21.516;2024-01-10T01:37:08;11.63;;;5.63;;
80195;SDS011;69516;42.050;21.516;2024-01-10T01:39:34;11.43;;;6.10;;
80195;SDS011;69516;42.050;21.516;2024-01-10T01:42:00;12.95;;;6.07;;
80195;SDS011;69516;42.050;21.516;2024-01-10T01:44:27;10.65;;;5.57;;
80195;SDS011;69516;42.050;21.516;2024-01-10T01:46:53;12.25;;;5.78;;
80195;SDS011;69516;42.050;21.516;2024-01-10T01:49:19;10.52;;;5.45;;
80195;SDS011;69516;42.050;21.516;2024-01-10T01:51:45;10.75;;;5.85;;
80195;SDS011;69516;42.050;21.516;2024-01-10T01:54:12;9.75;;;5.50;;
80195;SDS011;69516;42.050;21.516;2024-01-10T01:56:39;12.13;;;5.82;;
80195;SDS011;69516;42.050;21.516;2024-01-10T01:59:05;13.00;;;6.13;;
80195;SDS011;69516;42.050;21.516;2024-01-10T02:01:31;11.77;;;6.00;;
80195;SDS011;69516;42.050;21.516;2024-01-10T02:03:59;11.27;;;5.93;;
80195;SDS011;69516;42.050;21.516;2024-01-10T02:06:28;12.32;;;5.97;;
80195;SDS011;69516;42.050;21.516;2024-01-10T02:08:55;12.35;;;6.28;;
80195;SDS011;69516;42.050;21.516;2024-01-10T02:11:21;12.73;;;6.65;;
80195;SDS011;69516;42.050;21.516;2024-01-10T02:13:48;13.63;;;6.47;;
80195;SDS011;69516;42.050;21.516;2024-01-10T02:16:14;11.75;;;6.13;;
80195;SDS011;69516;42.050;21.516;2024-01-10T02:18:40;11.73;;;6.43;;
80195;SDS011;69516;42.050;21.516;2024-01-10T02:21:06;13.18;;;6.53;;
80195;SDS011;69516;42.050;21.516;2024-01-10T02:23:33;11.13;;;6.00;;
80195;SDS011;69516;42.050;21.516;2024-01-10T02:25:59;12.55;;;6.60;;
80195;SDS011;69516;42.050;21.516;2024-01-10T02:28:25;13.30;;;7.03;;
80195;SDS011;69516;42.050;21.516;2024-01-10T02:30:52;11.75;;;6.55;;
80195;SDS011;69516;42.050;21.516;2024-01-10T02:33:18;12.60;;;7.10;;
80195;SDS011;69516;42.050;21.516;2024-01-10T02:35:44;13.48;;;6.88;;
80195;SDS011;69516;42.050;21.516;2024-01-10T02:38:11;11.60;;;6.35;;
80195;SDS011;69516;42.050;21.516;2024-01-10T02:40:37;13.60;;;6.60;;
80195;SDS011;69516;42.050;21.516;2024-01-10T02:43:03;12.60;;;6.38;;
80195;SDS011;69516;42.050;21.516;2024-01-10T02:45:29;15.57;;;7.43;;
80195;SDS011;69516;42.050;21.516;2024-01-10T02:47:55;12.75;;;6.38;;
80195;SDS011;69516;42.050;21.516;2024-01-10T02:50:21;14.32;;;7.60;;
80195;SDS011;69516;42.050;21.516;2024-01-10T02:52:47;13.77;;;6.80;;
80195;SDS011;69516;42.050;21.516;2024-01-10T02:55:14;13.45;;;6.60;;
80195;SDS011;69516;42.050;21.516;2024-01-10T02:57:40;12.13;;;6.65;;
80195;SDS011;69516;42.050;21.516;2024-01-10T03:00:06;12.52;;;6.75;;
80195;SDS011;69516;42.050;21.516;2024-01-10T03:02:32;11.18;;;5.85;;
80195;SDS011;69516;42.050;21.516;2024-01-10T03:04:59;12.13;;;6.13;;
80195;SDS011;69516;42.050;21.516;2024-01-10T03:07:25;12.50;;;6.82;;
80195;SDS011;69516;42.050;21.516;2024-01-10T03:09:51;12.93;;;7.03;;
80195;SDS011;69516;42.050;21.516;2024-01-10T03:12:17;11.60;;;6.57;;
80195;SDS011;69516;42.050;21.516;2024-01-10T03:14:43;14.20;;;6.95;;
80195;SDS011;69516;42.050;21.516;2024-01-10T03:17:10;11.88;;;6.97;;
80195;SDS011;69516;42.050;21.516;2024-01-10T03:19:36;11.55;;;6.60;;
80195;SDS011;69516;42.050;21.516;2024-01-10T03:22:07;13.18;;;6.57;;
80195;SDS011;69516;42.050;21.516;2024-01-10T03:24:33;14.25;;;6.82;;
80195;SDS011;69516;42.050;21.516;2024-01-10T03:26:59;13.82;;;6.78;;
80195;SDS011;69516;42.050;21.516;2024-01-10T03:29:25;12.18;;;5.97;;
80195;SDS011;69516;42.050;21.516;2024-01-10T03:31:51;13.15;;;6.43;;
80195;SDS011;69516;42.050;21.516;2024-01-10T03:34:18;11.68;;;6.60;;
80195;SDS011;69516;42.050;21.516;2024-01-10T03:36:44;12.32;;;6.30;;
80195;SDS011;69516;42.050;21.516;2024-01-10T03:39:10;12.45;;;6.38;;
80195;SDS011;69516;42.050;21.516;2024-01-10T03:41:36;11.45;;;5.97;;
80195;SDS011;69516;42.050;21.516;2024-01-10T03:44:03;11.73;;;5.70;;
80195;SDS011;69516;42.050;21.516;2024-01-10T03:46:29;11.55;;;6.13;;
80195;SDS011;69516;42.050;21.516;2024-01-10T03:48:55;13.27;;;6.07;;
80195;SDS011;69516;42.050;21.516;2024-01-10T03:51:22;12.50;;;6.18;;
80195;SDS011;69516;42.050;21.516;2024-01-10T03:53:48;11.30;;;5.97;;
80195;SDS011;69516;42.050;21.516;2024-01-10T03:56:16;11.27;;;5.45;;
80195;SDS011;69516;42.050;21.516;2024-01-10T03:58:42;11.80;;;6.30;;
80195;SDS011;69516;42.050;21.516;2024-01-10T04:01:08;11.20;;;6.30;;
80195;SDS011;69516;42.050;21.516;2024-01-10T04:03:35;11.70;;;6.13;;
80195;SDS011;69516;42.050;21.516;2024-01-10T04:06:01;12.63;;;7.30;;
80195;SDS011;69516;42.050;21.516;2024-01-10T04:08:27;12.70;;;6.43;;
80195;SDS011;69516;42.050;21.516;2024-01-10T04:10:54;10.38;;;5.50;;
80195;SDS011;69516;42.050;21.516;2024-01-10T04:13:20;11.55;;;5.82;;
80195;SDS011;69516;42.050;21.516;2024-01-10T04:15:46;11.13;;;5.95;;
80195;SDS011;69516;42.050;21.516;2024-01-10T04:18:13;10.60;;;5.57;;
80195;SDS011;69516;42.050;21.516;2024-01-10T04:20:39;11.43;;;6.13;;
80195;SDS011;69516;42.050;21.516;2024-01-10T04:23:05;12.02;;;6.10;;
80195;SDS011;69516;42.050;21.516;2024-01-10T04:25:31;12.32;;;6.07;;
80195;SDS011;69516;42.050;21.516;2024-01-10T04:27:57;11.05;;;5.85;;
80195;SDS011;69516;42.050;21.516;2024-01-10T04:30:23;14.52;;;6.63;;
80195;SDS011;69516;42.050;21.516;2024-01-10T04:32:49;12.60;;;5.88;;
80195;SDS011;69516;42.050;21.516;2024-01-10T04:35:16;11.02;;;6.18;;
80195;SDS011;69516;42.050;21.516;2024-01-10T04:37:42;12.23;;;5.75;;
80195;SDS011;69516;42.050;21.516;2024-01-10T04:40:08;11.48;;;6.40;;
80195;SDS011;69516;42.050;21.516;2024-01-10T04:42:35;11.75;;;6.10;;
80195;SDS011;69516;42.050;21.516;2024-01-10T04:45:01;12.30;;;5.80;;
80195;SDS011;69516;42.050;21.516;2024-01-10T04:47:27;12.68;;;6.93;;
80195;SDS011;69516;42.050;21.516;2024-01-10T04:49:53;10.80;;;6.05;;
80195;SDS011;69516;42.050;21.516;2024-01-10T04:52:20;13.65;;;6.57;;
80195;SDS011;69516;42.050;21.516;2024-01-10T04:54:46;13.80;;;6.63;;
80195;SDS011;69516;42.050;21.516;2024-01-10T04:57:12;12.90;;;6.18;;
80195;SDS011;69516;42.050;21.516;2024-01-10T04:59:38;11.70;;;6.55;;
80195;SDS011;69516;42.050;21.516;2024-01-10T05:02:04;14.05;;;6.55;;
80195;SDS011;69516;42.050;21.516;2024-01-10T05:04:30;13.18;;;6.20;;
80195;SDS011;69516;42.050;21.516;2024-01-10T05:06:56;12.50;;;6.15;;
80195;SDS011;69516;42.050;21.516;2024-01-10T05:09:22;11.32;;;6.25;;
80195;SDS011;69516;42.050;21.516;2024-01-10T05:11:48;12.93;;;6.15;;
80195;SDS011;69516;42.050;21.516;2024-01-10T05:14:16;12.73;;;6.65;;
80195;SDS011;69516;42.050;21.516;2024-01-10T05:16:46;12.35;;;6.40;;
80195;SDS011;69516;42.050;21.516;2024-01-10T05:19:15;13.13;;;6.18;;
80195;SDS011;69516;42.050;21.516;2024-01-10T05:21:41;11.80;;;5.93;;
80195;SDS011;69516;42.050;21.516;2024-01-10T05:24:08;11.48;;;5.85;;
80195;SDS011;69516;42.050;21.516;2024-01-10T05:26:34;11.00;;;6.15;;
80195;SDS011;69516;42.050;21.516;2024-01-10T05:29:00;13.52;;;6.50;;
80195;SDS011;69516;42.050;21.516;2024-01-10T05:31:26;13.65;;;6.45;;
80195;SDS011;69516;42.050;21.516;2024-01-10T05:33:53;11.75;;;5.80;;
80195;SDS011;69516;42.050;21.516;2024-01-10T05:36:22;13.18;;;6.50;;
80195;SDS011;69516;42.050;21.516;2024-01-10T05:38:49;12.48;;;6.13;;
80195;SDS011;69516;42.050;21.516;2024-01-10T05:41:15;12.60;;;6.18;;
80195;SDS011;69516;42.050;21.516;2024-01-10T05:43:41;13.68;;;6.97;;
80195;SDS011;69516;42.050;21.516;2024-01-10T05:46:09;13.68;;;6.78;;
80195;SDS011;69516;42.050;21.516;2024-01-10T05:48:35;11.80;;;6.47;;
80195;SDS011;69516;42.050;21.516;2024-01-10T05:51:02;13.73;;;6.90;;
80195;SDS011;69516;42.050;21.516;2024-01-10T05:53:28;12.68;;;6.30;;
80195;SDS011;69516;42.050;21.516;2024-01-10T05:55:54;11.85;;;6.90;;
80195;SDS011;69516;42.050;21.516;2024-01-10T05:58:20;13.43;;;6.70;;
80195;SDS011;69516;42.050;21.516;2024-01-10T06:00:47;14.15;;;7.40;;
80195;SDS011;69516;42.050;21.516;2024-01-10T06:03:13;12.95;;;6.45;;
80195;SDS011;69516;42.050;21.516;2024-01-10T06:05:39;15.90;;;7.05;;
80195;SDS011;69516;42.050;21.516;2024-01-10T06:08:05;12.95;;;7.30;;
80195;SDS011;69516;42.050;21.516;2024-01-10T06:10:32;14.10;;;6.82;;
80195;SDS011;69516;42.050;21.516;2024-01-10T06:12:58;13.38;;;6.65;;
80195;SDS011;69516;42.050;21.516;2024-01-10T06:15:24;14.50;;;6.90;;
80195;SDS011;69516;42.050;21.516;2024-01-10T06:17:50;14.20;;;7.00;;
80195;SDS011;69516;42.050;21.516;2024-01-10T06:20:16;13.30;;;6.60;;
80195;SDS011;69516;42.050;21.516;2024-01-10T06:22:43;14.63;;;7.05;;
80195;SDS011;69516;42.050;21.516;2024-01-10T06:25:11;15.10;;;7.68;;
80195;SDS011;69516;42.050;21.516;2024-01-10T06:27:38;12.70;;;7.03;;
80195;SDS011;69516;42.050;21.516;2024-01-10T06:30:04;15.20;;;8.48;;
80195;SDS011;69516;42.050;21.516;2024-01-10T06:32:32;12.52;;;7.13;;
80195;SDS011;69516;42.050;21.516;2024-01-10T06:34:58;13.77;;;6.47;;
80195;SDS011;69516;42.050;21.516;2024-01-10T06:37:27;14.10;;;6.57;;
80195;SDS011;69516;42.050;21.516;2024-01-10T06:39:53;11.77;;;6.78;;
80195;SDS011;69516;42.050;21.516;2024-01-10T06:42:19;13.20;;;6.18;;
80195;SDS011;69516;42.050;21.516;2024-01-10T06:44:45;14.82;;;6.60;;
80195;SDS011;69516;42.050;21.516;2024-01-10T06:47:11;16.55;;;7.40;;
80195;SDS011;69516;42.050;21.516;2024-01-10T06:49:39;13.30;;;7.28;;
80195;SDS011;69516;42.050;21.516;2024-01-10T06:52:05;12.13;;;6.47;;
80195;SDS011;69516;42.050;21.516;2024-01-10T06:54:33;12.38;;;6.70;;
80195;SDS011;69516;42.050;21.516;2024-01-10T06:57:00;15.35;;;7.18;;
80195;SDS011;69516;42.050;21.516;2024-01-10T06:59:26;14.52;;;7.43;;
80195;SDS011;69516;42.050;21.516;2024-01-10T07:01:55;13.68;;;6.75;;
80195;SDS011;69516;42.050;21.516;2024-01-10T07:04:22;11.90;;;6.72;;
80195;SDS011;69516;42.050;21.516;2024-01-10T07:06:49;12.93;;;6.75;;
80195;SDS011;69516;42.050;21.516;2024-01-10T07:09:15;13.32;;;6.97;;
80195;SDS011;69516;42.050;21.516;2024-01-10T07:11:46;13.80;;;7.07;;
80195;SDS011;69516;42.050;21.516;2024-01-10T07:14:13;15.10;;;7.78;;
80195;SDS011;69516;42.050;21.516;2024-01-10T07:16:39;14.82;;;8.00;;
80195;SDS011;69516;42.050;21.516;2024-01-10T07:19:10;17.10;;;7.85;;
80195;SDS011;69516;42.050;21.516;2024-01-10T07:21:39;10.52;;;5.28;;
80195;SDS011;69516;42.050;21.516;2024-01-10T07:24:06;15.07;;;8.07;;
80195;SDS011;69516;42.050;21.516;2024-01-10T07:26:34;13.32;;;8.13;;
80195;SDS011;69516;42.050;21.516;2024-01-10T07:29:01;15.32;;;8.93;;
80195;SDS011;69516;42.050;21.516;2024-01-10T07:31:28;14.18;;;7.13;;
80195;SDS011;69516;42.050;21.516;2024-01-10T07:33:57;12.88;;;6.05;;
80195;SDS011;69516;42.050;21.516;2024-01-10T07:38:55;17.85;;;9.60;;
80195;SDS011;69516;42.050;21.516;2024-01-10T07:41:25;11.82;;;6.35;;
80195;SDS011;69516;42.050;21.516;2024-01-10T07:43:51;16.55;;;8.73;;
80195;SDS011;69516;42.050;21.516;2024-01-10T07:46:17;12.25;;;4.78;;
80195;SDS011;69516;42.050;21.516;2024-01-10T07:48:43;11.15;;;5.15;;
80195;SDS011;69516;42.050;21.516;2024-01-10T07:51:10;11.32;;;5.22;;
80195;SDS011;69516;42.050;21.516;2024-01-10T07:53:36;13.77;;;5.22;;
80195;SDS011;69516;42.050;21.516;2024-01-10T07:56:02;16.02;;;7.88;;
80195;SDS011;69516;42.050;21.516;2024-01-10T07:58:29;11.77;;;6.10;;
80195;SDS011;69516;42.050;21.516;2024-01-10T08:00:55;13.50;;;7.25;;
80195;SDS011;69516;42.050;21.516;2024-01-10T08:03:21;13.90;;;6.32;;
80195;SDS011;69516;42.050;21.516;2024-01-10T08:05:48;15.23;;;9.27;;
80195;SDS011;69516;42.050;21.516;2024-01-10T08:08:14;14.77;;;8.10;;
80195;SDS011;69516;42.050;21.516;2024-01-10T08:10:42;15.98;;;7.43;;
80195;SDS011;69516;42.050;21.516;2024-01-10T08:13:08;15.38;;;7.70;;
80195;SDS011;69516;42.050;21.516;2024-01-10T08:15:34;16.25;;;7.97;;
80195;SDS011;69516;42.050;21.516;2024-01-10T08:18:00;15.68;;;7.40;;
80195;SDS011;69516;42.050;21.516;2024-01-10T08:20:30;15.55;;;8.63;;
80195;SDS011;69516;42.050;21.516;2024-01-10T08:22:56;13.48;;;6.65;;
80195;SDS011;69516;42.050;21.516;2024-01-10T08:25:23;8.55;;;5.30;;
80195;SDS011;69516;42.050;21.516;2024-01-10T08:27:52;13.45;;;6.82;;
80195;SDS011;69516;42.050;21.516;2024-01-10T08:30:20;19.08;;;9.50;;
80195;SDS011;69516;42.050;21.516;2024-01-10T08:32:47;18.85;;;9.15;;
80195;SDS011;69516;42.050;21.516;2024-01-10T08:35:14;18.13;;;8.55;;
80195;SDS011;69516;42.050;21.516;2024-01-10T08:37:41;17.25;;;9.05;;
80195;SDS011;69516;42.050;21.516;2024-01-10T08:40:09;17.38;;;10.70;;
80195;SDS011;69516;42.050;21.516;2024-01-10T08:42:37;21.00;;;12.32;;
80195;SDS011;69516;42.050;21.516;2024-01-10T08:45:04;23.05;;;13.05;;
80195;SDS011;69516;42.050;21.516;2024-01-10T08:47:31;17.00;;;8.95;;
80195;SDS011;69516;42.050;21.516;2024-01-10T08:49:59;17.10;;;8.50;;
80195;SDS011;69516;42.050;21.516;2024-01-10T08:52:25;16.00;;;10.65;;
80195;SDS011;69516;42.050;21.516;2024-01-10T08:54:51;10.32;;;5.60;;
80195;SDS011;69516;42.050;21.516;2024-01-10T08:57:18;14.02;;;7.80;;
80195;SDS011;69516;42.050;21.516;2024-01-10T08:59:44;16.50;;;8.43;;
80195;SDS011;69516;42.050;21.516;2024-01-10T09:02:11;17.67;;;10.25;;
80195;SDS011;69516;42.050;21.516;2024-01-10T09:04:38;16.67;;;9.05;;
80195;SDS011;69516;42.050;21.516;2024-01-10T09:07:04;12.48;;;5.25;;
80195;SDS011;69516;42.050;21.516;2024-01-10T09:09:30;7.93;;;4.05;;
80195;SDS011;69516;42.050;21.516;2024-01-10T09:11:56;20.10;;;12.23;;
80195;SDS011;69516;42.050;21.516;2024-01-10T09:14:22;16.50;;;9.38;;
80195;SDS011;69516;42.050;21.516;2024-01-10T09:16:48;13.63;;;7.78;;
80195;SDS011;69516;42.050;21.516;2024-01-10T09:19:15;11.70;;;6.82;;
80195;SDS011;69516;42.050;21.516;2024-01-10T09:21:41;16.17;;;6.55;;
80195;SDS011;69516;42.050;21.516;2024-01-10T09:24:07;17.83;;;10.45;;
80195;SDS011;69516;42.050;21.516;2024-01-10T09:26:36;18.63;;;10.35;;
80195;SDS011;69516;42.050;21.516;2024-01-10T09:29:02;13.32;;;8.20;;
80195;SDS011;69516;42.050;21.516;2024-01-10T09:31:28;12.57;;;6.53;;
80195;SDS011;69516;42.050;21.516;2024-01-10T09:33:54;18.70;;;8.27;;
80195;SDS011;69516;42.050;21.516;2024-01-10T09:36:21;18.35;;;9.88;;
80195;SDS011;69516;42.050;21.516;2024-01-10T09:38:47;18.88;;;10.10;;
80195;SDS011;69516;42.050;21.516;2024-01-10T09:41:13;33.47;;;15.70;;
80195;SDS011;69516;42.050;21.516;2024-01-10T09:43:40;16.45;;;9.23;;
80195;SDS011;69516;42.050;21.516;2024-01-10T09:46:07;10.25;;;6.00;;
80195;SDS011;69516;42.050;21.516;2024-01-10T09:48:35;20.52;;;11.45;;
80195;SDS011;69516;42.050;21.516;2024-01-10T09:51:02;14.98;;;8.00;;
80195;SDS011;69516;42.050;21.516;2024-01-10T09:53:28;13.05;;;7.47;;
80195;SDS011;69516;42.050;21.516;2024-01-10T09:55:57;14.93;;;8.90;;
80195;SDS011;69516;42.050;21.516;2024-01-10T09:58:25;20.20;;;11.55;;
80195;SDS011;69516;42.050;21.516;2024-01-10T10:00:52;18.88;;;9.77;;
80195;SDS011;69516;42.050;21.516;2024-01-10T10:03:18;21.17;;;14.55;;
80195;SDS011;69516;42.050;21.516;2024-01-10T10:05:45;16.75;;;9.88;;
80195;SDS011;69516;42.050;21.516;2024-01-10T10:08:12;20.95;;;10.88;;
80195;SDS011;69516;42.050;21.516;2024-01-10T10:10:48;21.88;;;11.48;;
80195;SDS011;69516;42.050;21.516;2024-01-10T10:13:24;15.40;;;8.68;;
80195;SDS011;69516;42.050;21.516;2024-01-10T10:16:00;20.15;;;13.63;;
80195;SDS011;69516;42.050;21.516;2024-01-10T10:21:11;19.10;;;9.52;;
80195;SDS011;69516;42.050;21.516;2024-01-10T10:23:38;21.73;;;13.52;;
80195;SDS011;69516;42.050;21.516;2024-01-10T10:28:40;19.25;;;10.85;;
80195;SDS011;69516;42.050;21.516;2024-01-10T10:31:06;18.77;;;10.15;;
80195;SDS011;69516;42.050;21.516;2024-01-10T10:33:33;18.00;;;9.43;;
80195;SDS011;69516;42.050;21.516;2024-01-10T10:35:59;23.23;;;13.68;;
80195;SDS011;69516;42.050;21.516;2024-01-10T10:38:26;15.98;;;8.85;;
80195;SDS011;69516;42.050;21.516;2024-01-10T10:40:52;17.92;;;9.63;;
80195;SDS011;69516;42.050;21.516;2024-01-10T10:43:18;21.77;;;12.63;;
80195;SDS011;69516;42.050;21.516;2024-01-10T10:45:47;21.10;;;11.30;;
80195;SDS011;69516;42.050;21.516;2024-01-10T10:48:14;16.38;;;8.88;;
80195;SDS011;69516;42.050;21.516;2024-01-10T10:50:43;13.90;;;8.00;;
80195;SDS011;69516;42.050;21.516;2024-01-10T10:53:13;19.52;;;11.50;;
80195;SDS011;69516;42.050;21.516;2024-01-10T10:55:40;24.10;;;15.48;;
80195;SDS011;69516;42.050;21.516;2024-01-10T10:58:06;19.13;;;11.90;;
80195;SDS011;69516;42.050;21.516;2024-01-10T11:00:33;21.33;;;12.68;;
80195;SDS011;69516;42.050;21.516;2024-01-10T11:03:00;17.02;;;9.98;;
80195;SDS011;69516;42.050;21.516;2024-01-10T11:05:28;23.73;;;13.95;;
80195;SDS011;69516;42.050;21.516;2024-01-10T11:07:54;22.30;;;12.82;;
80195;SDS011;69516;42.050;21.516;2024-01-10T11:10:23;21.65;;;14.27;;
80195;SDS011;69516;42.050;21.516;2024-01-10T11:15:55;23.33;;;16.80;;
80195;SDS011;69516;42.050;21.516;2024-01-10T11:21:21;25.35;;;13.60;;
80195;SDS011;69516;42.050;21.516;2024-01-10T11:23:54;21.83;;;10.93;;
80195;SDS011;69516;42.050;21.516;2024-01-10T11:26:21;22.60;;;12.10;;
80195;SDS011;69516;42.050;21.516;2024-01-10T11:28:47;22.95;;;12.02;;
80195;SDS011;69516;42.050;21.516;2024-01-10T11:31:14;20.85;;;11.25;;
80195;SDS011;69516;42.050;21.516;2024-01-10T11:33:41;21.42;;;11.65;;
80195;SDS011;69516;42.050;21.516;2024-01-10T11:39:18;24.00;;;12.30;;
80195;SDS011;69516;42.050;21.516;2024-01-10T11:41:30;23.25;;;12.10;;
80195;SDS011;69516;42.050;21.516;2024-01-10T11:46:53;24.77;;;13.90;;
80195;SDS011;69516;42.050;21.516;2024-01-10T11:49:20;21.52;;;11.82;;
80195;SDS011;69516;42.050;21.516;2024-01-10T11:51:52;24.98;;;13.65;;
80195;SDS011;69516;42.050;21.516;2024-01-10T11:57:07;23.50;;;12.98;;
80195;SDS011;69516;42.050;21.516;2024-01-10T11:59:33;26.40;;;14.40;;
80195;SDS011;69516;42.050;21.516;2024-01-10T12:02:00;21.85;;;12.68;;
80195;SDS011;69516;42.050;21.516;2024-01-10T12:04:26;22.70;;;13.68;;
80195;SDS011;69516;42.050;21.516;2024-01-10T12:06:55;21.10;;;12.98;;
80195;SDS011;69516;42.050;21.516;2024-01-10T12:09:21;22.25;;;12.10;;
80195;SDS011;69516;42.050;21.516;2024-01-10T12:11:49;24.80;;;13.52;;
80195;SDS011;69516;42.050;21.516;2024-01-10T12:14:16;29.63;;;15.95;;
80195;SDS011;69516;42.050;21.516;2024-01-10T12:16:42;25.98;;;14.18;;
80195;SDS011;69516;42.050;21.516;2024-01-10T12:19:09;21.92;;;12.55;;
80195;SDS011;69516;42.050;21.516;2024-01-10T12:21:35;24.90;;;13.63;;
80195;SDS011;69516;42.050;21.516;2024-01-10T12:24:05;23.33;;;13.77;;
80195;SDS011;69516;42.050;21.516;2024-01-10T12:26:31;23.38;;;12.73;;
80195;SDS011;69516;42.050;21.516;2024-01-10T12:28:58;22.67;;;12.27;;
80195;SDS011;69516;42.050;21.516;2024-01-10T12:31:27;23.45;;;12.73;;
80195;SDS011;69516;42.050;21.516;2024-01-10T12:33:57;24.27;;;13.00;;
80195;SDS011;69516;42.050;21.516;2024-01-10T12:36:23;23.77;;;13.10;;
80195;SDS011;69516;42.050;21.516;2024-01-10T12:38:50;22.80;;;12.52;;
80195;SDS011;69516;42.050;21.516;2024-01-10T12:41:17;24.02;;;13.45;;
80195;SDS011;69516;42.050;21.516;2024-01-10T12:43:43;24.88;;;12.60;;
80195;SDS011;69516;42.050;21.516;2024-01-10T12:46:15;27.13;;;13.43;;
80195;SDS011;69516;42.050;21.516;2024-01-10T12:48:41;22.02;;;13.20;;
80195;SDS011;69516;42.050;21.516;2024-01-10T12:51:09;22.30;;;13.40;;
80195;SDS011;69516;42.050;21.516;2024-01-10T12:53:36;23.48;;;13.32;;
80195;SDS011;69516;42.050;21.516;2024-01-10T12:56:03;23.40;;;13.30;;
80195;SDS011;69516;42.050;21.516;2024-01-10T12:58:30;24.05;;;12.82;;
80195;SDS011;69516;42.050;21.516;2024-01-10T13:00:56;21.27;;;12.00;;
80195;SDS011;69516;42.050;21.516;2024-01-10T13:03:22;22.52;;;12.63;;
80195;SDS011;69516;42.050;21.516;2024-01-10T13:05:49;22.58;;;12.65;;
80195;SDS011;69516;42.050;21.516;2024-01-10T13:08:16;22.38;;;12.27;;
80195;SDS011;69516;42.050;21.516;2024-01-10T13:10:42;21.75;;;12.32;;
80195;SDS011;69516;42.050;21.516;2024-01-10T13:13:08;20.70;;;12.05;;
80195;SDS011;69516;42.050;21.516;2024-01-10T13:15:34;21.88;;;11.32;;
80195;SDS011;69516;42.050;21.516;2024-01-10T13:18:00;20.33;;;11.68;;
80195;SDS011;69516;42.050;21.516;2024-01-10T13:20:26;23.90;;;14.10;;
80195;SDS011;69516;42.050;21.516;2024-01-10T13:22:53;24.15;;;13.55;;
80195;SDS011;69516;42.050;21.516;2024-01-10T13:25:19;25.02;;;13.68;;
80195;SDS011;69516;42.050;21.516;2024-01-10T13:27:51;22.50;;;13.18;;
80195;SDS011;69516;42.050;21.516;2024-01-10T13:30:18;21.55;;;12.82;;
80195;SDS011;69516;42.050;21.516;2024-01-10T13:32:45;21.90;;;12.10;;
80195;SDS011;69516;42.050;21.516;2024-01-10T13:35:12;22.80;;;12.65;;
80195;SDS011;69516;42.050;21.516;2024-01-10T13:37:39;28.38;;;12.60;;
80195;SDS011;69516;42.050;21.516;2024-01-10T13:40:06;17.38;;;10.63;;
80195;SDS011;69516;42.050;21.516;2024-01-10T13:42:33;20.23;;;10.48;;
80195;SDS011;69516;42.050;21.516;2024-01-10T13:44:59;22.00;;;10.90;;
80195;SDS011;69516;42.050;21.516;2024-01-10T13:47:25;21.05;;;10.18;;
80195;SDS011;69516;42.050;21.516;2024-01-10T13:49:51;16.70;;;9.98;;
80195;SDS011;69516;42.050;21.516;2024-01-10T13:52:17;22.88;;;11.40;;
80195;SDS011;69516;42.050;21.516;2024-01-10T13:54:44;21.83;;;11.85;;
80195;SDS011;69516;42.050;21.516;2024-01-10T13:57:10;20.02;;;10.35;;
80195;SDS011;69516;42.050;21.516;2024-01-10T13:59:36;19.60;;;10.95;;
80195;SDS011;69516;42.050;21.516;2024-01-10T14:02:02;23.85;;;10.40;;
80195;SDS011;69516;42.050;21.516;2024-01-10T14:04:29;18.20;;;10.45;;
80195;SDS011;69516;42.050;21.516;2024-01-10T14:06:55;17.65;;;9.98;;
80195;SDS011;69516;42.050;21.516;2024-01-10T14:09:21;19.95;;;10.27;;
80195;SDS011;69516;42.050;21.516;2024-01-10T14:11:47;19.52;;;10.80;;
80195;SDS011;69516;42.050;21.516;2024-01-10T14:14:17;19.08;;;9.35;;
80195;SDS011;69516;42.050;21.516;2024-01-10T14:16:43;17.13;;;9.40;;
80195;SDS011;69516;42.050;21.516;2024-01-10T14:19:09;16.38;;;8.98;;
80195;SDS011;69516;42.050;21.516;2024-01-10T14:21:35;18.55;;;8.57;;
80195;SDS011;69516;42.050;21.516;2024-01-10T14:24:01;18.30;;;9.20;;
80195;SDS011;69516;42.050;21.516;2024-01-10T14:26:28;18.58;;;9.38;;
80195;SDS011;69516;42.050;21.516;2024-01-10T14:28:54;19.40;;;9.68;;
80195;SDS011;69516;42.050;21.516;2024-01-10T14:31:21;18.73;;;10.05;;
80195;SDS011;69516;42.050;21.516;2024-01-10T14:33:48;19.25;;;10.13;;
80195;SDS011;69516;42.050;21.516;2024-01-10T14:36:14;21.25;;;10.93;;
80195;SDS011;69516;42.050;21.516;2024-01-10T14:38:41;22.25;;;11.63;;